Time;durP1;ratioP1;P1;durP2;ratioP2;P2;SDS_P1;SDS_P2;PMS_P1;PMS_P2;Temp;Humidity;BMP_temperature;BMP_pressure;BME280_temperature;BME280_humidity;BME280_pressure;Samples;Min_cycle;Max_cycle;Signal;HPM_P1;HPM_P2
2022/09/01 00:00:58;;;;;;;2.00;1.40;;;19.80;89.80;;;20.09;86.31;101360.91;5203416;28;20072;-70
2022/09/01 00:03:30;;;;;;;1.80;1.42;;;19.70;90.30;;;20.00;86.93;101369.66;5204307;28;20051;-69
2022/09/01 00:06:08;;;;;;;1.63;1.52;;;19.60;90.50;;;19.91;87.71;101366.97;5204283;28;20045;-69
2022/09/01 00:08:41;;;;;;;2.03;1.70;;;19.50;90.90;;;19.83;88.73;101367.81;5204253;28;20045;-70
2022/09/01 00:11:14;;;;;;;2.25;1.50;;;19.50;91.30;;;19.73;89.23;101367.75;5204215;28;20537;-70
2022/09/01 00:13:48;;;;;;;1.90;1.60;;;19.30;91.60;;;19.66;89.64;101365.06;5203225;28;20123;-70
2022/09/01 00:16:21;;;;;;;2.30;1.50;;;19.30;91.80;;;19.57;90.94;101365.84;5204058;28;20047;-71
2022/09/01 00:18:55;;;;;;;2.50;1.95;;;19.20;92.30;;;19.50;91.50;101369.34;5204065;28;20041;-71
2022/09/01 00:21:34;;;;;;;1.90;1.70;;;19.10;92.60;;;19.43;92.32;101370.13;5203959;28;20123;-70
2022/09/01 00:24:07;;;;;;;3.05;1.77;;;19.00;92.90;;;19.37;93.25;101367.47;5319208;22;20052;-86
2022/09/01 00:26:40;;;;;;;2.42;1.48;;;19.00;93.40;;;19.31;93.63;101372.72;5209917;28;20045;-87
2022/09/01 00:29:13;;;;;;;2.30;1.80;;;18.90;93.70;;;19.27;93.86;101381.47;5213728;28;20046;-87
2022/09/01 00:31:47;;;;;;;3.75;2.20;;;18.90;93.90;;;19.21;93.98;101374.38;5210279;28;20527;-88
2022/09/01 00:34:20;;;;;;;2.60;1.77;;;18.80;94.00;;;19.19;94.38;101369.09;5210458;28;20049;-86
2022/09/01 00:36:52;;;;;;;2.95;1.90;;;18.80;94.30;;;19.18;95.11;101372.59;5211804;28;20048;-87
2022/09/01 00:39:24;;;;;;;2.58;1.83;;;18.80;94.60;;;19.17;95.74;101378.75;5212193;28;20052;-86
2022/09/01 00:41:57;;;;;;;1.73;1.52;;;18.80;94.90;;;19.17;96.03;101375.22;5213070;28;20424;-87
2022/09/01 00:44:30;;;;;;;1.75;1.60;;;18.80;95.10;;;19.17;95.96;101372.56;5213065;28;20139;-86
2022/09/01 00:47:05;;;;;;;1.80;1.50;;;18.80;95.20;;;19.16;95.20;101369.03;5213239;28;20113;-87
2022/09/01 00:49:42;;;;;;;2.03;1.73;;;18.80;95.10;;;19.20;94.41;101365.56;5213273;28;20122;-87
2022/09/01 00:52:19;;;;;;;1.98;1.58;;;18.80;94.90;;;19.24;93.46;101364.72;5213227;28;20054;-86
2022/09/01 00:54:57;;;;;;;1.70;1.30;;;18.80;94.60;;;19.27;93.28;101360.34;5213710;28;20046;-87
2022/09/01 00:57:29;;;;;;;2.47;1.70;;;18.80;94.60;;;19.25;92.30;101362.97;5213244;28;20056;-86
2022/09/01 01:00:12;;;;;;;2.15;1.50;;;18.80;94.30;;;19.24;92.13;101356.81;5213543;28;20136;-85
2022/09/01 01:02:47;;;;;;;1.73;1.50;;;18.90;94.30;;;19.25;92.34;101361.22;5214044;28;20052;-87
2022/09/01 01:05:22;;;;;;;2.10;1.90;;;18.90;94.40;;;19.24;93.01;101359.44;5214552;28;20049;-87
2022/09/01 01:07:56;;;;;;;2.22;1.70;;;18.80;94.50;;;19.20;93.20;101365.56;5213131;28;20059;-86
2022/09/01 01:10:34;;;;;;;2.22;1.75;;;18.80;94.60;;;19.17;92.87;101352.34;5213093;28;20076;-87
2022/09/01 01:13:12;;;;;;;2.25;1.60;;;18.80;94.60;;;19.14;93.28;101362.88;5213725;28;20073;-86
2022/09/01 01:15:45;;;;;;;2.72;1.70;;;18.70;94.70;;;19.13;93.81;101360.22;5213681;28;20057;-87
2022/09/01 01:18:18;;;;;;;2.80;1.77;;;18.70;94.90;;;19.12;93.11;101361.09;5213272;28;20029;-86
2022/09/01 01:24:01;;;;;;;2.00;1.55;;;18.70;94.70;;;19.03;93.63;101369.81;5213774;28;20192;-86
2022/09/01 01:26:36;;;;;;;2.30;1.75;;;18.70;95.00;;;18.96;94.09;101365.34;5213514;28;20037;-87
2022/09/01 01:29:08;;;;;;;2.58;1.58;;;18.60;95.20;;;18.95;92.61;101363.56;5230575;28;20499;-87
2022/09/01 01:31:42;;;;;;;2.30;1.60;;;18.60;94.70;;;18.94;92.37;101367.09;5214019;28;20050;-87
2022/09/01 01:34:16;;;;;;;1.80;1.63;;;18.60;94.60;;;18.96;91.67;101360.94;5214541;28;20060;-86
2022/09/01 01:36:49;;;;;;;3.75;1.90;;;18.60;94.40;;;18.97;90.72;101356.53;5215249;28;20052;-88
2022/09/01 01:39:25;;;;;;;3.22;1.40;;;18.60;94.10;;;18.99;90.01;101354.81;5214855;28;20140;-86
2022/09/01 01:41:59;;;;;;;2.15;1.75;;;18.70;94.00;;;19.00;88.86;101353.94;5214043;28;20065;-87
2022/09/01 01:44:32;;;;;;;1.70;1.40;;;18.60;93.50;;;19.01;88.04;101353.06;5214277;28;20573;-86
2022/09/01 01:47:08;;;;;;;;;;;18.70;93.30;;;18.98;87.39;101355.69;5213658;28;20046;-87
2022/09/01 01:49:43;;;;;;;1.50;1.23;;;18.60;92.90;;;19.02;87.51;101360.13;5214910;28;20368;-89
2022/09/01 01:52:16;;;;;;;1.35;1.25;;;18.70;93.00;;;19.06;87.91;101359.28;5216528;28;20042;-87
2022/09/01 01:54:50;;;;;;;2.75;1.60;;;18.70;93.40;;;19.10;88.49;101361.06;5215322;28;20049;-88
2022/09/01 01:57:23;;;;;;;1.77;1.25;;;18.80;93.30;;;19.12;88.76;101369.91;5212084;28;20048;-87
2022/09/01 01:59:55;;;;;;;1.90;1.45;;;18.80;93.40;;;19.12;88.58;101372.56;5212220;28;20063;-86
2022/09/01 02:02:28;;;;;;;1.45;1.35;;;18.70;93.30;;;19.12;88.21;101366.38;5211984;28;20075;-86
2022/09/01 02:05:00;;;;;;;1.63;1.42;;;18.80;93.20;;;19.12;87.83;101367.25;5212726;28;20104;-86
2022/09/01 02:07:33;;;;;;;1.70;1.40;;;18.80;93.10;;;19.11;88.22;101368.13;5212848;28;20079;-88
2022/09/01 02:10:06;;;;;;;2.28;1.48;;;18.70;93.20;;;19.12;88.15;101367.25;5212676;28;20091;-86
2022/09/01 02:12:42;;;;;;;1.80;1.48;;;18.70;93.20;;;19.12;89.25;101369.91;5211886;28;20053;-86
2022/09/01 02:15:14;;;;;;;1.40;1.30;;;18.80;93.60;;;19.12;89.82;101383.13;5212538;28;20104;-87
2022/09/01 02:17:47;;;;;;;1.85;1.50;;;18.70;93.70;;;19.11;89.39;101381.34;5211555;28;20046;-87
2022/09/01 02:20:21;;;;;;;1.50;1.20;;;18.70;93.60;;;19.09;88.55;101372.50;5213025;28;20555;-85
2022/09/01 02:22:55;;;;;;;1.90;1.23;;;18.70;93.40;;;19.10;87.86;101368.97;5212618;28;20072;-86
2022/09/01 02:25:28;;;;;;;1.38;1.27;;;18.70;93.20;;;19.13;87.28;101376.97;5213222;28;20113;-87
2022/09/01 02:28:08;;;;;;;1.90;1.33;;;18.80;93.00;;;19.15;87.48;101374.31;5212140;28;20045;-86
2022/09/01 02:30:41;;;;;;;1.92;1.27;;;18.70;93.30;;;19.13;88.08;101371.66;5213081;28;20049;-87
2022/09/01 02:33:17;;;;;;;1.30;1.10;;;18.70;93.20;;;19.13;88.44;101374.31;5211984;28;20071;-87
2022/09/01 02:35:55;;;;;;;1.98;1.27;;;18.70;93.30;;;19.10;89.06;101368.09;5212140;28;20052;-87
2022/09/01 02:38:30;;;;;;;1.40;1.20;;;18.80;93.50;;;19.06;89.50;101372.50;5196726;28;20096;-85
2022/09/01 02:41:03;;;;;;;1.67;1.58;;;18.70;94.00;;;19.01;89.95;101368.91;5213371;28;20052;-86
2022/09/01 02:43:38;;;;;;;1.92;1.33;;;18.60;93.80;;;18.97;90.17;101372.38;5213312;28;20077;-88
2022/09/01 02:46:11;;;;;;;1.70;1.30;;;18.60;93.90;;;18.92;90.73;101372.38;5212444;28;20072;-87
2022/09/01 02:48:50;;;;;;;1.65;1.42;;;18.60;94.10;;;18.87;91.06;101367.91;5213301;28;20041;-87
2022/09/01 02:51:25;;;;;;;1.55;1.33;;;18.50;94.20;;;18.84;91.00;101373.13;5214762;28;20053;-87
2022/09/01 02:53:57;;;;;;;1.40;1.30;;;18.50;94.20;;;18.80;91.99;101379.28;5211280;28;20057;-85
2022/09/01 02:56:29;;;;;;;2.33;1.60;;;18.40;94.50;;;18.76;92.59;101372.19;5210352;28;20045;-86
2022/09/01 02:59:03;;;;;;;2.53;1.50;;;18.40;94.80;;;18.70;92.97;101363.31;5210269;28;20049;-86
2022/09/01 03:01:35;;;;;;;1.75;1.52;;;18.30;95.00;;;18.67;93.44;101372.97;5210795;28;20060;-86
2022/09/01 03:04:09;;;;;;;1.95;1.40;;;18.30;95.40;;;18.62;93.70;101372.00;5210163;28;20045;-86
2022/09/01 03:06:43;;;;;;;1.63;1.30;;;18.30;95.30;;;18.60;92.83;101361.44;5210680;28;20144;-86
2022/09/01 03:09:18;;;;;;;1.90;1.58;;;18.20;95.10;;;18.59;93.06;101367.59;5211259;28;20408;-86
2022/09/01 03:11:53;;;;;;;2.05;1.50;;;18.20;95.20;;;18.57;93.10;101366.66;5211013;28;20053;-87
2022/09/01 03:14:28;;;;;;;;;;;18.20;95.20;;;18.55;93.68;101367.53;5211378;28;20057;-86
2022/09/01 03:17:01;;;;;;;1.75;1.45;;;18.20;95.40;;;18.53;93.85;101366.63;5210302;28;19975;-86
2022/09/01 03:19:44;;;;;;;1.75;1.48;;;18.20;95.50;;;18.51;93.44;101365.72;5211339;28;20045;-86
2022/09/01 03:22:17;;;;;;;2.53;1.30;;;18.20;95.40;;;18.46;94.07;101364.78;5213281;28;20053;-89
2022/09/01 03:24:49;;;;;;;1.75;1.50;;;18.10;95.60;;;18.37;94.82;101368.19;5212916;28;20045;-86
2022/09/01 03:27:23;;;;;;;1.92;1.42;;;18.00;95.80;;;18.32;95.57;101372.50;5212238;28;20052;-85
2022/09/01 03:29:57;;;;;;;2.15;1.40;;;18.00;96.10;;;18.26;95.45;101364.56;5211779;28;20053;-86
2022/09/01 03:32:29;;;;;;;1.38;1.27;;;17.90;96.10;;;18.17;96.23;101366.19;5211797;28;20438;-86
2022/09/01 03:35:02;;;;;;;2.08;1.67;;;17.90;96.40;;;18.11;97.00;101366.09;5212559;28;20069;-86
2022/09/01 03:37:35;;;;;;;1.88;1.42;;;17.80;96.60;;;18.01;97.80;101366.88;5211558;28;20069;-88
2022/09/01 03:40:09;;;;;;;1.73;1.63;;;17.70;96.90;;;17.95;98.83;101364.16;5213329;28;20543;-87
2022/09/01 03:42:42;;;;;;;1.70;1.40;;;17.60;97.30;;;17.88;99.81;101364.94;5211991;28;20553;-86
2022/09/01 03:45:19;;;;;;;1.90;1.67;;;17.60;97.70;;;17.84;100.00;101360.47;5210627;28;20081;-86
2022/09/01 03:47:53;;;;;;;3.45;1.40;;;17.50;98.00;;;17.78;100.00;101361.25;5210816;28;20049;-87
2022/09/01 03:50:26;;;;;;;2.42;1.70;;;17.50;98.10;;;17.75;100.00;101361.22;5210318;28;20065;-86
2022/09/01 03:53:00;;;;;;;1.90;1.70;;;17.40;98.30;;;17.69;100.00;101363.75;5210294;28;20072;-87
2022/09/01 03:55:36;;;;;;;3.47;1.58;;;17.40;98.50;;;17.63;100.00;101361.91;5210708;28;20052;-85
2022/09/01 03:58:11;;;;;;;2.22;1.58;;;17.30;98.70;;;17.56;100.00;101362.66;5209349;28;20048;-86
2022/09/01 04:00:54;;;;;;;3.33;1.80;;;17.30;99.00;;;17.49;100.00;101358.16;5210496;28;20503;-86
2022/09/01 04:03:30;;;;;;;1.90;1.60;;;17.20;99.40;;;17.41;100.00;101349.28;5210688;28;20042;-86
2022/09/01 04:06:04;;;;;;;2.85;1.40;;;17.10;99.70;;;17.35;100.00;101349.16;5210217;28;20061;-86
2022/09/01 04:08:38;;;;;;;;;;;17.10;99.90;;;17.30;100.00;101346.44;5195160;28;20061;-87
2022/09/01 04:11:15;;;;;;;1.80;1.70;;;17.00;99.90;;;17.27;100.00;101354.28;5213840;28;19925;-86
2022/09/01 04:13:48;;;;;;;2.08;1.58;;;17.00;99.90;;;17.24;100.00;101350.75;5213929;28;20058;-85
2022/09/01 04:19:18;;;;;;;3.90;1.80;;;16.90;99.90;;;17.15;100.00;101347.94;5171104;28;20049;-87
2022/09/01 04:21:53;;;;;;;2.55;1.73;;;16.90;99.90;;;17.11;100.00;101354.03;5214035;28;20084;-86
2022/09/01 04:24:29;;;;;;;2.58;1.90;;;16.80;99.90;;;17.05;100.00;101355.69;5214442;28;20125;-86
2022/09/01 04:27:06;;;;;;;2.78;1.83;;;16.80;99.90;;;17.01;100.00;101359.13;5197891;28;20145;-85
2022/09/01 04:29:38;;;;;;;2.05;1.70;;;16.80;99.90;;;16.95;100.00;101353.78;5213781;28;20042;-86
2022/09/01 04:32:14;;;;;;;3.75;1.95;;;16.70;99.90;;;16.92;100.00;101360.72;5213195;28;20053;-88
2022/09/01 04:34:50;;;;;;;2.75;1.73;;;16.70;99.90;;;16.88;100.00;101357.13;5213397;28;20088;-87
2022/09/01 04:37:23;;;;;;;2.65;1.70;;;16.60;99.90;;;16.84;100.00;101359.72;5213205;28;20049;-86
2022/09/01 04:39:58;;;;;;;2.05;1.48;;;16.50;99.90;;;16.80;100.00;101362.25;5213313;28;20488;-86
2022/09/01 04:42:32;;;;;;;2.38;1.80;;;16.50;99.90;;;16.76;100.00;101364.84;5213833;28;20045;-87
2022/09/01 04:45:09;;;;;;;;;;;16.50;99.90;;;16.73;100.00;101364.75;5215321;28;20495;-87
2022/09/01 04:47:45;;;;;;;2.13;1.90;;;16.40;99.90;;;16.70;100.00;101364.72;5232085;28;19909;-91
2022/09/01 04:50:22;;;;;;;2.45;1.90;;;16.40;99.90;;;16.67;100.00;101354.97;5214485;28;20057;-87
2022/09/01 04:53:17;;;;;;;2.20;1.83;;;16.40;99.90;;;16.67;100.00;101361.97;5216015;28;20091;-86
2022/09/01 04:55:53;;;;;;;3.05;2.03;;;16.40;99.90;;;16.70;100.00;101356.81;5215389;28;20045;-88
2022/09/01 04:58:27;;;;;;;2.30;1.83;;;16.40;99.90;;;16.74;100.00;101361.25;5214939;28;20045;-87
2022/09/01 05:01:06;;;;;;;2.33;1.65;;;16.40;99.90;;;16.74;100.00;101358.63;5214051;28;20072;-88
2022/09/01 05:03:40;;;;;;;2.55;1.65;;;16.40;99.90;;;16.74;100.00;101353.38;5214677;28;20119;-86
2022/09/01 05:06:38;;;;;;;2.78;2.03;;;16.50;99.90;;;16.77;100.00;101363.97;5210753;28;20055;-86
2022/09/01 05:09:13;;;;;;;2.10;1.80;;;16.50;99.90;;;16.79;100.00;101357.88;5216099;28;20136;-87
2022/09/01 05:12:15;;;;;;;2.45;1.95;;;16.50;99.90;;;16.83;100.00;101364.09;5211847;28;20037;-86
2022/09/01 05:14:48;;;;;;;2.13;1.90;;;16.50;99.90;;;16.83;100.00;101357.94;5215871;28;20050;-87
2022/09/01 05:17:24;;;;;;;2.85;1.92;;;16.50;99.90;;;16.81;100.00;101365.78;5215107;28;20057;-87
2022/09/01 05:19:59;;;;;;;2.90;2.10;;;16.50;99.90;;;16.82;100.00;101357.00;5217126;28;20049;-88
2022/09/01 05:22:32;;;;;;;4.00;2.03;;;16.50;99.90;;;16.81;100.00;101368.41;5215426;28;20516;-90
2022/09/01 05:25:13;;;;;;;2.63;1.60;;;16.50;99.90;;;16.80;100.00;101370.16;5213733;28;20049;-86
2022/09/01 05:27:51;;;;;;;2.72;1.70;;;16.50;99.90;;;16.80;100.00;101375.44;5213806;28;20073;-87
2022/09/01 05:30:27;;;;;;;2.55;1.90;;;16.50;99.90;;;16.83;100.00;101366.72;5213270;28;20132;-87
2022/09/01 05:32:59;;;;;;;1.90;1.52;;;16.50;99.90;;;16.85;100.00;101367.63;5213713;28;20049;-88
2022/09/01 05:35:37;;;;;;;2.63;1.60;;;16.60;99.90;;;16.85;100.00;101372.88;5214863;28;20271;-87
2022/09/01 05:38:11;;;;;;;3.05;1.80;;;16.50;99.90;;;16.86;100.00;101372.03;5212418;28;20045;-86
2022/09/01 05:40:44;;;;;;;;;;;16.50;99.90;;;16.86;100.00;101374.66;5219469;28;20100;-90
2022/09/01 05:43:17;;;;;;;1.92;1.55;;;16.50;99.90;;;16.89;100.00;101369.47;5221720;28;19921;-86
2022/09/01 05:45:50;;;;;;;2.40;1.70;;;16.60;99.90;;;16.93;100.00;101376.53;5213057;28;20484;-87
2022/09/01 05:48:23;;;;;;;2.67;1.83;;;16.60;99.90;;;17.00;100.00;101374.91;5213491;28;20049;-88
2022/09/01 05:50:59;;;;;;;3.30;1.80;;;16.70;99.90;;;17.07;100.00;101382.94;5212213;28;20247;-87
2022/09/01 05:53:32;;;;;;;1.95;1.60;;;16.70;99.90;;;17.12;100.00;101383.03;5211771;28;20061;-87
2022/09/01 05:56:08;;;;;;;2.10;1.50;;;16.80;99.90;;;17.22;100.00;101386.72;5211958;28;20049;-85
2022/09/01 05:58:43;;;;;;;3.13;1.50;;;16.90;99.90;;;17.33;100.00;101387.75;5212668;28;20076;-85
2022/09/01 06:01:23;;;;;;;1.98;1.48;;;16.90;99.90;;;17.50;100.00;101388.06;5212004;28;20140;-85
2022/09/01 06:03:58;;;;;;;2.13;1.55;;;17.10;99.90;;;17.68;100.00;101390.09;5211355;28;20068;-83
2022/09/01 06:06:43;;;;;;;2.17;1.52;;;17.20;99.90;;;17.87;100.00;101385.16;5209206;28;20113;-82
2022/09/01 06:09:18;;;;;;;3.30;1.75;;;17.40;99.90;;;18.20;100.00;101388.22;5210824;28;20056;-83
2022/09/01 06:11:51;;;;;;;2.38;1.65;;;17.70;99.90;;;18.58;100.00;101383.38;5220405;28;20042;-84
2022/09/01 06:14:24;;;;;;;3.13;1.60;;;18.00;99.90;;;19.00;97.55;101385.66;5225132;28;20034;-82
2022/09/01 06:16:57;;;;;;;3.20;1.48;;;18.40;99.80;;;19.52;93.81;101386.09;5211709;28;20041;-82
2022/09/01 06:19:33;;;;;;;2.00;1.65;;;18.80;98.80;;;20.08;90.16;101396.16;5210980;28;20121;-82
2022/09/01 06:22:09;;;;;;;2.58;1.52;;;19.30;97.40;;;20.52;87.41;101392.88;5210833;28;20067;-81
2022/09/01 06:24:41;;;;;;;2.60;1.60;;;19.80;96.30;;;20.95;85.22;101398.28;5210653;28;20050;-80
2022/09/01 06:27:19;;;;;;;2.85;1.80;;;20.20;95.40;;;21.35;82.08;101394.81;5210177;28;20507;-82
2022/09/01 06:29:56;;;;;;;2.50;1.40;;;20.60;94.10;;;21.78;79.69;101392.13;5211198;28;20045;-82
2022/09/01 06:32:29;;;;;;;2.75;1.55;;;20.90;92.80;;;22.15;78.00;101397.38;5210139;28;20053;-82
2022/09/01 06:35:02;;;;;;;4.45;1.60;;;21.30;91.80;;;22.39;76.22;101399.94;5210772;28;20075;-83
2022/09/01 06:37:37;;;;;;;1.52;1.30;;;21.60;90.80;;;22.66;75.40;101403.34;5210302;28;20195;-84
2022/09/01 06:40:16;;;;;;;1.85;1.33;;;21.90;90.20;;;22.86;73.85;101396.16;5209697;28;20573;-83
2022/09/01 06:42:51;;;;;;;1.98;1.48;;;22.10;88.50;;;23.06;72.96;101397.81;5210271;28;20397;-82
2022/09/01 06:45:24;;;;;;;3.03;1.58;;;22.30;86.90;;;23.27;72.25;101403.84;5210510;28;20595;-83
2022/09/01 06:47:57;;;;;;;1.77;1.27;;;22.50;85.70;;;23.52;71.92;101403.66;5207004;28;20041;-83
2022/09/01 06:50:29;;;;;;;2.08;1.40;;;22.70;85.00;;;23.78;71.01;101406.09;5207798;28;20077;-82
2022/09/01 06:53:09;;;;;;;1.17;1.00;;;23.00;83.90;;;23.97;69.07;101407.66;5207657;28;20049;-83
2022/09/01 06:55:42;;;;;;;1.98;1.20;;;23.20;81.60;;;24.05;68.70;101400.47;5207678;28;20459;-81
2022/09/01 06:58:16;;;;;;;1.58;0.85;;;23.30;80.30;;;24.19;68.48;101407.41;5208157;28;20427;-82
2022/09/01 07:00:54;;;;;;;1.75;1.02;;;23.40;79.80;;;24.36;67.07;101410.81;5207042;28;20049;-81
2022/09/01 07:03:26;;;;;;;1.90;1.25;;;23.60;77.90;;;24.55;67.56;101412.34;5207309;28;20037;-82
2022/09/01 07:06:22;;;;;;;1.55;1.20;;;23.70;78.00;;;24.67;66.43;101415.75;5207675;28;20083;-82
2022/09/01 07:09:25;;;;;;;2.50;1.17;;;23.90;76.80;;;24.74;65.93;101417.44;5208478;28;20049;-82
2022/09/01 07:12:18;;;;;;;2.92;1.30;;;23.90;75.60;;;24.91;65.39;101415.41;5208772;28;20056;-82
2022/09/01 07:14:51;;;;;;;2.10;1.13;;;24.10;75.20;;;25.02;65.75;101418.78;5207979;28;20535;-84
2022/09/01 07:17:25;;;;;;;2.33;1.30;;;24.20;75.20;;;25.15;64.79;101420.38;5208133;28;20045;-86
2022/09/01 07:19:58;;;;;;;3.55;1.35;;;24.30;74.40;;;25.35;65.33;101416.53;5208431;28;20045;-84
2022/09/01 07:22:31;;;;;;;1.15;1.02;;;24.50;74.40;;;25.48;63.98;101422.53;5207843;28;20121;-84
2022/09/01 07:25:11;;;;;;;2.13;1.00;;;24.60;72.90;;;25.48;63.37;101415.41;5208911;28;20053;-85
2022/09/01 07:28:05;;;;;;;3.10;1.33;;;24.70;72.20;;;25.52;63.75;101411.78;5208436;28;20053;-84
2022/09/01 07:30:42;;;;;;;2.70;1.10;;;24.70;72.20;;;25.64;63.20;101406.25;5209134;28;20037;-85
2022/09/01 07:33:22;;;;;;;4.03;1.05;;;24.80;71.70;;;25.69;62.09;101407.03;5209595;28;20049;-85
2022/09/01 07:35:56;;;;;;;1.83;1.00;;;24.80;70.30;;;25.79;62.01;101409.56;5209310;28;20059;-84
2022/09/01 07:38:31;;;;;;;2.13;1.20;;;24.90;70.00;;;25.95;61.20;101411.03;5209745;28;20052;-83
2022/09/01 07:41:05;;;;;;;3.00;1.23;;;25.00;69.40;;;26.06;61.70;101400.16;5209490;28;20049;-85
2022/09/01 07:43:56;;;;;;;1.35;1.23;;;25.20;69.60;;;26.31;60.94;101405.88;5210534;28;20068;-84
2022/09/01 07:46:41;;;;;;;3.22;0.93;;;25.40;68.80;;;26.49;60.30;101410.88;5209952;28;20526;-85
2022/09/01 07:49:20;;;;;;;2.05;0.80;;;25.50;67.90;;;26.55;59.43;101413.41;5209488;28;20113;-85
2022/09/01 07:51:53;;;;;;;2.33;0.82;;;25.70;67.10;;;26.61;58.58;101413.28;5209505;28;20046;-85
2022/09/01 07:54:28;;;;;;;;;;;25.70;66.00;;;26.68;58.77;101409.56;5210216;28;20046;-86
2022/09/01 07:57:04;;;;;;;1.73;1.00;;;25.70;65.80;;;26.86;59.10;101410.03;5209549;28;19994;-84
2022/09/01 07:59:39;;;;;;;2.45;1.17;;;25.90;66.20;;;27.00;58.36;101406.16;5226451;28;20400;-85
2022/09/01 08:02:32;;;;;;;1.10;1.00;;;26.00;65.60;;;27.23;57.63;101408.28;5206890;28;20929;-85
2022/09/01 08:05:08;;;;;;;2.40;0.90;;;26.20;64.80;;;27.50;56.77;101405.84;5209489;28;20061;-85
2022/09/01 08:07:41;;;;;;;1.23;0.80;;;26.30;64.10;;;27.69;56.42;101404.47;5209857;28;20053;-85
2022/09/01 08:10:13;;;;;;;1.73;1.00;;;26.50;63.70;;;27.89;55.59;101400.38;5210183;28;20068;-84
2022/09/01 08:12:48;;;;;;;2.05;0.98;;;26.60;63.00;;;28.15;55.58;101411.25;5215220;28;20042;-84
2022/09/01 08:15:20;;;;;;;1.13;0.90;;;26.80;62.90;;;28.47;54.91;101415.72;5224090;28;20049;-85
2022/09/01 08:17:53;;;;;;;2.00;0.95;;;26.90;62.40;;;28.83;53.83;101419.09;5208767;28;20084;-85
2022/09/01 08:20:29;;;;;;;1.67;0.88;;;27.20;61.60;;;29.32;52.96;101411.28;5209273;28;20038;-85
2022/09/01 08:23:06;;;;;;;1.67;0.90;;;27.40;61.10;;;29.95;51.74;101405.53;5210157;28;20504;-85
2022/09/01 08:25:42;;;;;;;2.35;0.90;;;27.70;60.20;;;30.58;51.92;101415.75;5209286;28;20049;-85
2022/09/01 08:28:16;;;;;;;1.75;0.85;;;28.00;60.60;;;31.21;50.79;101411.44;5208830;28;20049;-84
2022/09/01 08:30:50;;;;;;;1.83;0.70;;;28.30;60.30;;;32.10;49.26;101409.41;5219576;28;20045;-85
2022/09/01 08:33:24;;;;;;;0.77;0.63;;;28.80;59.30;;;32.93;48.15;101413.69;5217377;28;20087;-85
2022/09/01 08:35:57;;;;;;;1.13;0.70;;;29.30;58.50;;;33.86;47.10;101411.66;5206949;28;20392;-85
2022/09/01 08:38:30;;;;;;;1.50;0.75;;;30.00;57.40;;;34.56;43.93;101417.84;5207457;28;20136;-85
2022/09/01 08:41:06;;;;;;;1.00;0.77;;;30.80;54.20;;;34.95;43.20;101412.03;5207630;28;20037;-84
2022/09/01 08:43:59;;;;;;;0.70;0.70;;;31.40;52.70;;;35.34;43.11;101408.81;5208850;28;20452;-85
2022/09/01 08:46:37;;;;;;;0.98;0.63;;;31.90;52.00;;;35.92;42.74;101409.00;5208295;28;20132;-85
2022/09/01 08:49:17;;;;;;;1.00;0.80;;;32.40;51.60;;;36.27;41.91;101406.81;5211231;28;20042;-85
2022/09/01 08:52:18;;;;;;;1.52;0.68;;;32.80;50.70;;;36.55;41.82;101412.25;5208881;28;20053;-85
2022/09/01 08:54:56;;;;;;;1.25;0.80;;;33.10;50.10;;;36.80;41.47;101406.09;5207746;28;20128;-85
2022/09/01 08:57:34;;;;;;;0.93;0.70;;;33.30;49.60;;;37.01;41.05;101408.38;5209405;28;20056;-85
2022/09/01 09:00:29;;;;;;;0.80;0.75;;;33.50;49.00;;;36.50;40.62;101399.94;5211878;28;20045;-86
2022/09/01 09:03:22;;;;;;;1.13;0.90;;;33.40;48.20;;;36.14;40.58;101401.28;5211084;28;20046;-85
2022/09/01 09:06:13;;;;;;;4.18;0.88;;;33.20;48.00;;;35.64;41.41;101407.97;5211169;28;20060;-85
2022/09/01 09:08:56;;;;;;;1.25;0.80;;;33.10;48.10;;;34.94;41.73;101387.72;5211086;28;20053;-85
2022/09/01 09:12:09;;;;;;;1.25;0.70;;;32.70;48.30;;;34.39;42.71;101388.97;5211085;28;20056;-85
2022/09/01 09:14:56;;;;;;;1.27;0.70;;;32.40;49.50;;;33.93;43.37;101390.59;5211442;28;20081;-85
2022/09/01 09:17:35;;;;;;;1.27;0.80;;;32.20;49.00;;;33.29;43.91;101389.34;5211656;28;20045;-85
2022/09/01 09:20:09;;;;;;;1.88;0.80;;;31.80;49.20;;;32.76;45.47;101386.59;5214053;28;20068;-84
2022/09/01 09:22:43;;;;;;;0.80;0.63;;;31.50;50.20;;;32.32;46.20;101384.16;5210954;28;20055;-84
2022/09/01 09:25:18;;;;;;;1.10;0.70;;;31.20;50.90;;;31.93;46.47;101387.72;5211444;28;20049;-84
2022/09/01 09:27:52;;;;;;;0.80;0.70;;;30.80;51.00;;;31.66;46.58;101378.13;5211959;28;20332;-84
2022/09/01 09:30:28;;;;;;;1.25;0.90;;;30.60;51.20;;;31.37;46.49;101372.22;5212193;28;20056;-85
2022/09/01 09:33:05;;;;;;;1.30;1.02;;;30.30;50.90;;;31.10;46.73;101381.41;5210231;28;20056;-84
2022/09/01 09:35:40;;;;;;;1.88;0.90;;;30.10;51.30;;;30.66;46.59;101360.72;5210132;28;20140;-84
2022/09/01 09:38:27;;;;;;;1.17;0.93;;;29.90;51.00;;;30.34;48.57;101364.66;5209788;28;20053;-84
2022/09/01 09:41:03;;;;;;;0.88;0.85;;;29.60;52.90;;;30.43;48.61;101367.00;5209625;28;20140;-85
2022/09/01 09:43:39;;;;;;;1.33;0.90;;;29.50;52.70;;;30.51;47.57;101354.09;5210320;28;20050;-85
2022/09/01 09:46:26;;;;;;;1.35;0.98;;;29.50;52.00;;;30.45;47.26;101359.75;5211799;28;20095;-84
2022/09/01 09:49:19;;;;;;;1.65;0.90;;;29.50;51.60;;;30.35;47.25;101346.72;5211514;28;20411;-85
2022/09/01 09:51:55;;;;;;;1.48;0.77;;;29.40;51.70;;;30.40;47.90;101344.75;5211294;28;20136;-86
2022/09/01 09:54:29;;;;;;;1.20;1.10;;;29.40;52.20;;;30.38;47.04;101350.16;5211002;28;20049;-85
2022/09/01 09:57:13;;;;;;;1.48;1.13;;;29.40;51.60;;;30.23;46.99;101342.69;5211190;28;20064;-84
2022/09/01 09:59:49;;;;;;;1.40;1.13;;;29.30;51.50;;;30.03;46.95;101338.03;5211785;28;20515;-84
2022/09/01 10:02:31;;;;;;;1.10;0.98;;;29.20;51.20;;;29.91;47.49;101331.28;5211361;28;20128;-85
2022/09/01 10:05:32;;;;;;;1.40;1.05;;;29.00;51.80;;;29.95;48.10;101332.94;5211809;28;20049;-85
2022/09/01 10:08:08;;;;;;;4.93;1.30;;;29.00;52.40;;;29.82;47.44;101334.34;5210744;28;20042;-85
2022/09/01 10:10:44;;;;;;;2.38;1.10;;;28.90;51.60;;;29.74;48.26;101325.69;5211862;28;20078;-84
2022/09/01 10:13:20;;;;;;;1.05;0.93;;;28.90;52.40;;;29.71;48.30;101323.97;5211327;28;20046;-85
2022/09/01 10:15:56;;;;;;;1.23;1.02;;;28.90;52.50;;;29.74;48.63;101323.00;5224421;22;20053;-78
2022/09/01 10:18:35;;;;;;;1.50;1.00;;;28.80;52.80;;;29.85;48.29;101328.84;5197911;28;20386;-78
2022/09/01 10:21:22;;;;;;;1.80;1.00;;;28.80;52.80;;;29.85;47.65;101319.91;5184870;28;20048;-78
2022/09/01 10:23:56;;;;;;;1.05;0.70;;;28.90;52.20;;;29.82;47.67;101303.91;5171051;28;20054;-78
2022/09/01 10:26:34;;;;;;;;;;;28.80;52.20;;;29.93;48.18;101312.41;5148724;28;20487;-78
2022/09/01 10:29:12;;;;;;;1.23;0.93;;;28.90;52.30;;;30.09;47.82;101310.03;5165597;28;19929;-77
2022/09/01 10:31:45;;;;;;;1.05;0.95;;;29.00;52.30;;;30.10;48.03;101304.63;5164254;28;20050;-78
2022/09/01 10:34:19;;;;;;;2.05;1.23;;;29.10;52.30;;;29.87;47.38;101308.19;5163895;28;20089;-78
2022/09/01 10:36:55;;;;;;;1.45;1.20;;;29.00;51.70;;;29.54;48.18;101298.66;5164041;28;20050;-77
2022/09/01 10:39:28;;;;;;;2.45;1.42;;;28.80;52.20;;;29.40;47.80;101304.47;5165871;28;20061;-78
2022/09/01 10:42:06;;;;;;;1.92;1.30;;;28.60;52.00;;;29.32;48.68;101303.88;5147831;28;20411;-78
2022/09/01 10:44:57;;;;;;;1.80;1.23;;;28.50;52.60;;;28.94;48.59;101303.38;5165133;28;20458;-78
2022/09/01 10:47:36;;;;;;;1.35;1.20;;;28.30;52.50;;;28.63;48.83;101300.81;5163881;28;20039;-77
2022/09/01 10:50:27;;;;;;;1.40;1.30;;;28.00;52.60;;;28.67;49.16;101299.78;5148237;28;20042;-77
2022/09/01 10:53:07;;;;;;;2.80;1.30;;;27.90;53.00;;;28.83;49.38;101300.16;5163951;28;20133;-78
2022/09/01 10:55:45;;;;;;;1.50;1.25;;;28.00;53.50;;;29.12;49.41;101297.38;5147843;28;20444;-78
2022/09/01 10:58:59;;;;;;;1.55;1.45;;;28.10;53.50;;;29.20;49.22;101284.56;5147483;28;20093;-79